<?xml version="1.0" encoding="utf-8"?>
<gpx xmlns:xsi="http://www.w3.org/2001/XMLSchema-instance" xmlns:xsd="http://www.w3.org/2001/XMLSchema" version="1.1" creator="Shapelink.com" xmlns="http://www.topografix.com/GPX/1/1" xmlns:gpxtpx="http://www.garmin.com/xmlschemas/TrackPointExtension/v1">
  <metadata>
    <name>Laufen 4.25 km, 2011-03-13</name>
    <desc></desc>
    <author><name>Jessica Ternander</name></author> 
    <time>2011-03-13T07:55:34Z</time>
  </metadata>
  <trk>
    <name>Laufen 4.25 km, 2011-03-13</name>
    <trkseg>
      <trkpt lat="59.299366" lon="18.5072469">
        <ele>22.7283</ele>
        <time>2011-03-13T07:55:34Z</time>
      </trkpt>
      <trkpt lat="59.2993526" lon="18.5069686">
        <ele>23.6896</ele>
        <time>2011-03-13T07:55:41Z</time>
      </trkpt>
      <trkpt lat="59.2993516" lon="18.5069332">
        <ele>23.209</ele>
        <time>2011-03-13T07:55:42Z</time>
      </trkpt>
      <trkpt lat="59.2993188" lon="18.5066923">
        <ele>23.6896</ele>
        <time>2011-03-13T07:55:48Z</time>
      </trkpt>
      <trkpt lat="59.2992852" lon="18.5065038">
        <ele>23.6896</ele>
        <time>2011-03-13T07:55:52Z</time>
      </trkpt>
      <trkpt lat="59.2992448" lon="18.5062765">
        <ele>22.7283</ele>
        <time>2011-03-13T07:55:57Z</time>
      </trkpt>
      <trkpt lat="59.299214" lon="18.5060168">
        <ele>21.767</ele>
        <time>2011-03-13T07:56:03Z</time>
      </trkpt>
      <trkpt lat="59.2991814" lon="18.5057588">
        <ele>21.2864</ele>
        <time>2011-03-13T07:56:09Z</time>
      </trkpt>
      <trkpt lat="59.2991535" lon="18.5055666">
        <ele>22.2476</ele>
        <time>2011-03-13T07:56:13Z</time>
      </trkpt>
      <trkpt lat="59.2991742" lon="18.5053151">
        <ele>23.209</ele>
        <time>2011-03-13T07:56:18Z</time>
      </trkpt>
      <trkpt lat="59.2992158" lon="18.5052568">
        <ele>24.1703</ele>
        <time>2011-03-13T07:56:20Z</time>
      </trkpt>
      <trkpt lat="59.2993877" lon="18.5051202">
        <ele>25.6123</ele>
        <time>2011-03-13T07:56:27Z</time>
      </trkpt>
      <trkpt lat="59.2995018" lon="18.5049389">
        <ele>28.4962</ele>
        <time>2011-03-13T07:56:33Z</time>
      </trkpt>
      <trkpt lat="59.2995359" lon="18.5048644">
        <ele>29.9381</ele>
        <time>2011-03-13T07:56:35Z</time>
      </trkpt>
      <trkpt lat="59.2996067" lon="18.5046162">
        <ele>31.8607</ele>
        <time>2011-03-13T07:56:41Z</time>
      </trkpt>
      <trkpt lat="59.2996555" lon="18.5044322">
        <ele>31.8607</ele>
        <time>2011-03-13T07:56:46Z</time>
      </trkpt>
      <trkpt lat="59.2996789" lon="18.5043531">
        <ele>31.8607</ele>
        <time>2011-03-13T07:56:48Z</time>
      </trkpt>
      <trkpt lat="59.2997355" lon="18.5041203">
        <ele>32.3416</ele>
        <time>2011-03-13T07:56:54Z</time>
      </trkpt>
      <trkpt lat="59.2997727" lon="18.5040009">
        <ele>31.8607</ele>
        <time>2011-03-13T07:56:57Z</time>
      </trkpt>
      <trkpt lat="59.2998276" lon="18.5037899">
        <ele>32.3416</ele>
        <time>2011-03-13T07:57:02Z</time>
      </trkpt>
      <trkpt lat="59.2998988" lon="18.5035658">
        <ele>31.3801</ele>
        <time>2011-03-13T07:57:08Z</time>
      </trkpt>
      <trkpt lat="59.2999782" lon="18.5033482">
        <ele>32.3416</ele>
        <time>2011-03-13T07:57:14Z</time>
      </trkpt>
      <trkpt lat="59.3000669" lon="18.5031093">
        <ele>32.8223</ele>
        <time>2011-03-13T07:57:21Z</time>
      </trkpt>
      <trkpt lat="59.300139" lon="18.5028813">
        <ele>33.3029</ele>
        <time>2011-03-13T07:57:27Z</time>
      </trkpt>
      <trkpt lat="59.3001978" lon="18.5026732">
        <ele>33.3029</ele>
        <time>2011-03-13T07:57:32Z</time>
      </trkpt>
      <trkpt lat="59.3002487" lon="18.5024095">
        <ele>33.3029</ele>
        <time>2011-03-13T07:57:38Z</time>
      </trkpt>
      <trkpt lat="59.3002853" lon="18.5021898">
        <ele>32.8223</ele>
        <time>2011-03-13T07:57:43Z</time>
      </trkpt>
      <trkpt lat="59.3003405" lon="18.5018904">
        <ele>32.8223</ele>
        <time>2011-03-13T07:57:50Z</time>
      </trkpt>
      <trkpt lat="59.3003869" lon="18.5016842">
        <ele>33.3029</ele>
        <time>2011-03-13T07:57:55Z</time>
      </trkpt>
      <trkpt lat="59.3004392" lon="18.5013817">
        <ele>33.3029</ele>
        <time>2011-03-13T07:58:02Z</time>
      </trkpt>
      <trkpt lat="59.300476" lon="18.5011216">
        <ele>31.8607</ele>
        <time>2011-03-13T07:58:08Z</time>
      </trkpt>
      <trkpt lat="59.3005211" lon="18.5009108">
        <ele>31.8607</ele>
        <time>2011-03-13T07:58:13Z</time>
      </trkpt>
      <trkpt lat="59.3005497" lon="18.5006897">
        <ele>29.9381</ele>
        <time>2011-03-13T07:58:18Z</time>
      </trkpt>
      <trkpt lat="59.3005911" lon="18.5004326">
        <ele>28.9769</ele>
        <time>2011-03-13T07:58:24Z</time>
      </trkpt>
      <trkpt lat="59.3006498" lon="18.5001577">
        <ele>30.8995</ele>
        <time>2011-03-13T07:58:31Z</time>
      </trkpt>
      <trkpt lat="59.3006802" lon="18.4999811">
        <ele>32.3416</ele>
        <time>2011-03-13T07:58:35Z</time>
      </trkpt>
      <trkpt lat="59.3007145" lon="18.4997504">
        <ele>33.7834</ele>
        <time>2011-03-13T07:58:40Z</time>
      </trkpt>
      <trkpt lat="59.3007625" lon="18.4995273">
        <ele>35.2255</ele>
        <time>2011-03-13T07:58:45Z</time>
      </trkpt>
      <trkpt lat="59.3007746" lon="18.4994877">
        <ele>35.2255</ele>
        <time>2011-03-13T07:58:46Z</time>
      </trkpt>
      <trkpt lat="59.3008128" lon="18.499304">
        <ele>34.7449</ele>
        <time>2011-03-13T07:58:51Z</time>
      </trkpt>
      <trkpt lat="59.3008289" lon="18.4990915">
        <ele>31.3801</ele>
        <time>2011-03-13T07:58:57Z</time>
      </trkpt>
      <trkpt lat="59.3008535" lon="18.4988745">
        <ele>28.0155</ele>
        <time>2011-03-13T07:59:02Z</time>
      </trkpt>
      <trkpt lat="59.3008776" lon="18.4986849">
        <ele>26.5736</ele>
        <time>2011-03-13T07:59:06Z</time>
      </trkpt>
      <trkpt lat="59.3009014" lon="18.4985017">
        <ele>25.6123</ele>
        <time>2011-03-13T07:59:10Z</time>
      </trkpt>
      <trkpt lat="59.3009284" lon="18.4983486">
        <ele>24.1703</ele>
        <time>2011-03-13T07:59:14Z</time>
      </trkpt>
      <trkpt lat="59.3009795" lon="18.4981446">
        <ele>23.6896</ele>
        <time>2011-03-13T07:59:19Z</time>
      </trkpt>
      <trkpt lat="59.3009919" lon="18.4981084">
        <ele>23.209</ele>
        <time>2011-03-13T07:59:20Z</time>
      </trkpt>
      <trkpt lat="59.3010682" lon="18.4979271">
        <ele>22.7283</ele>
        <time>2011-03-13T07:59:25Z</time>
      </trkpt>
      <trkpt lat="59.3011169" lon="18.4978406">
        <ele>22.2476</ele>
        <time>2011-03-13T07:59:28Z</time>
      </trkpt>
      <trkpt lat="59.3012371" lon="18.4977245">
        <ele>22.7283</ele>
        <time>2011-03-13T07:59:34Z</time>
      </trkpt>
      <trkpt lat="59.3013681" lon="18.4975592">
        <ele>22.7283</ele>
        <time>2011-03-13T07:59:40Z</time>
      </trkpt>
      <trkpt lat="59.3014439" lon="18.4975016">
        <ele>21.2864</ele>
        <time>2011-03-13T07:59:44Z</time>
      </trkpt>
      <trkpt lat="59.3014985" lon="18.4976298">
        <ele>21.767</ele>
        <time>2011-03-13T07:59:48Z</time>
      </trkpt>
      <trkpt lat="59.3015359" lon="18.4977508">
        <ele>20.8057</ele>
        <time>2011-03-13T07:59:51Z</time>
      </trkpt>
      <trkpt lat="59.3016352" lon="18.4980364">
        <ele>20.325</ele>
        <time>2011-03-13T07:59:58Z</time>
      </trkpt>
      <trkpt lat="59.3017059" lon="18.4982196">
        <ele>21.2864</ele>
        <time>2011-03-13T08:00:03Z</time>
      </trkpt>
      <trkpt lat="59.3017721" lon="18.4984265">
        <ele>21.2864</ele>
        <time>2011-03-13T08:00:08Z</time>
      </trkpt>
      <trkpt lat="59.3018302" lon="18.4986281">
        <ele>22.7283</ele>
        <time>2011-03-13T08:00:13Z</time>
      </trkpt>
      <trkpt lat="59.3018659" lon="18.498872">
        <ele>25.1317</ele>
        <time>2011-03-13T08:00:19Z</time>
      </trkpt>
      <trkpt lat="59.3018938" lon="18.4990917">
        <ele>24.651</ele>
        <time>2011-03-13T08:00:24Z</time>
      </trkpt>
      <trkpt lat="59.3019394" lon="18.4992553">
        <ele>27.0543</ele>
        <time>2011-03-13T08:00:28Z</time>
      </trkpt>
      <trkpt lat="59.3019938" lon="18.4995126">
        <ele>27.5349</ele>
        <time>2011-03-13T08:00:34Z</time>
      </trkpt>
      <trkpt lat="59.3020168" lon="18.4996495">
        <ele>26.5736</ele>
        <time>2011-03-13T08:00:37Z</time>
      </trkpt>
      <trkpt lat="59.3020725" lon="18.4998638">
        <ele>27.5349</ele>
        <time>2011-03-13T08:00:42Z</time>
      </trkpt>
      <trkpt lat="59.3020861" lon="18.4999088">
        <ele>26.5736</ele>
        <time>2011-03-13T08:00:43Z</time>
      </trkpt>
      <trkpt lat="59.3021193" lon="18.5000348">
        <ele>23.6896</ele>
        <time>2011-03-13T08:00:46Z</time>
      </trkpt>
      <trkpt lat="59.3021606" lon="18.5001922">
        <ele>23.209</ele>
        <time>2011-03-13T08:00:50Z</time>
      </trkpt>
      <trkpt lat="59.3022434" lon="18.5004197">
        <ele>23.6896</ele>
        <time>2011-03-13T08:00:56Z</time>
      </trkpt>
      <trkpt lat="59.3022999" lon="18.5006221">
        <ele>23.209</ele>
        <time>2011-03-13T08:01:01Z</time>
      </trkpt>
      <trkpt lat="59.3023477" lon="18.5008474">
        <ele>18.8831</ele>
        <time>2011-03-13T08:01:06Z</time>
      </trkpt>
      <trkpt lat="59.3024073" lon="18.5011227">
        <ele>15.0377</ele>
        <time>2011-03-13T08:01:12Z</time>
      </trkpt>
      <trkpt lat="59.3024625" lon="18.5013528">
        <ele>12.6344</ele>
        <time>2011-03-13T08:01:17Z</time>
      </trkpt>
      <trkpt lat="59.3025301" lon="18.5016043">
        <ele>7.82788</ele>
        <time>2011-03-13T08:01:22Z</time>
      </trkpt>
      <trkpt lat="59.3025755" lon="18.5018059">
        <ele>5.42456</ele>
        <time>2011-03-13T08:01:27Z</time>
      </trkpt>
      <trkpt lat="59.3026393" lon="18.5018267">
        <ele>3.50195</ele>
        <time>2011-03-13T08:01:31Z</time>
      </trkpt>
      <trkpt lat="59.3027704" lon="18.50176">
        <ele>4.46326</ele>
        <time>2011-03-13T08:01:38Z</time>
      </trkpt>
      <trkpt lat="59.3028191" lon="18.5014702">
        <ele>5.42456</ele>
        <time>2011-03-13T08:01:45Z</time>
      </trkpt>
      <trkpt lat="59.3028194" lon="18.5012237">
        <ele>7.34717</ele>
        <time>2011-03-13T08:01:49Z</time>
      </trkpt>
      <trkpt lat="59.3028595" lon="18.5009953">
        <ele>7.82788</ele>
        <time>2011-03-13T08:01:54Z</time>
      </trkpt>
      <trkpt lat="59.302879" lon="18.5007983">
        <ele>7.34717</ele>
        <time>2011-03-13T08:01:58Z</time>
      </trkpt>
      <trkpt lat="59.3029184" lon="18.5005068">
        <ele>7.82788</ele>
        <time>2011-03-13T08:02:04Z</time>
      </trkpt>
      <trkpt lat="59.3029499" lon="18.5003455">
        <ele>8.30859</ele>
        <time>2011-03-13T08:02:08Z</time>
      </trkpt>
      <trkpt lat="59.3029797" lon="18.5001653">
        <ele>7.34717</ele>
        <time>2011-03-13T08:02:13Z</time>
      </trkpt>
      <trkpt lat="59.3030049" lon="18.4999668">
        <ele>6.86646</ele>
        <time>2011-03-13T08:02:18Z</time>
      </trkpt>
      <trkpt lat="59.3030201" lon="18.4998128">
        <ele>7.82788</ele>
        <time>2011-03-13T08:02:22Z</time>
      </trkpt>
      <trkpt lat="59.3030758" lon="18.499554">
        <ele>8.30859</ele>
        <time>2011-03-13T08:02:29Z</time>
      </trkpt>
      <trkpt lat="59.303126" lon="18.4993462">
        <ele>8.78918</ele>
        <time>2011-03-13T08:02:35Z</time>
      </trkpt>
      <trkpt lat="59.3031526" lon="18.4991183">
        <ele>8.78918</ele>
        <time>2011-03-13T08:02:41Z</time>
      </trkpt>
      <trkpt lat="59.3032009" lon="18.4987954">
        <ele>11.6732</ele>
        <time>2011-03-13T08:02:48Z</time>
      </trkpt>
      <trkpt lat="59.3032335" lon="18.498575">
        <ele>10.7118</ele>
        <time>2011-03-13T08:02:53Z</time>
      </trkpt>
      <trkpt lat="59.3032595" lon="18.49837">
        <ele>11.1925</ele>
        <time>2011-03-13T08:02:58Z</time>
      </trkpt>
      <trkpt lat="59.3032857" lon="18.4981935">
        <ele>9.75061</ele>
        <time>2011-03-13T08:03:02Z</time>
      </trkpt>
      <trkpt lat="59.3033222" lon="18.4979669">
        <ele>8.78918</ele>
        <time>2011-03-13T08:03:07Z</time>
      </trkpt>
      <trkpt lat="59.3033732" lon="18.4976826">
        <ele>7.82788</ele>
        <time>2011-03-13T08:03:13Z</time>
      </trkpt>
      <trkpt lat="59.3034037" lon="18.497449">
        <ele>6.38586</ele>
        <time>2011-03-13T08:03:18Z</time>
      </trkpt>
      <trkpt lat="59.3034397" lon="18.4970823">
        <ele>5.42456</ele>
        <time>2011-03-13T08:03:25Z</time>
      </trkpt>
      <trkpt lat="59.3034857" lon="18.4967989">
        <ele>5.90527</ele>
        <time>2011-03-13T08:03:31Z</time>
      </trkpt>
      <trkpt lat="59.3035224" lon="18.49652">
        <ele>6.86646</ele>
        <time>2011-03-13T08:03:37Z</time>
      </trkpt>
      <trkpt lat="59.3035524" lon="18.4962249">
        <ele>6.38586</ele>
        <time>2011-03-13T08:03:43Z</time>
      </trkpt>
      <trkpt lat="59.3035801" lon="18.4959908">
        <ele>5.90527</ele>
        <time>2011-03-13T08:03:48Z</time>
      </trkpt>
      <trkpt lat="59.3036102" lon="18.4957695">
        <ele>5.90527</ele>
        <time>2011-03-13T08:03:53Z</time>
      </trkpt>
      <trkpt lat="59.303648" lon="18.4955122">
        <ele>5.90527</ele>
        <time>2011-03-13T08:03:59Z</time>
      </trkpt>
      <trkpt lat="59.3037063" lon="18.4951947">
        <ele>5.42456</ele>
        <time>2011-03-13T08:04:06Z</time>
      </trkpt>
      <trkpt lat="59.3037896" lon="18.4948879">
        <ele>3.50195</ele>
        <time>2011-03-13T08:04:13Z</time>
      </trkpt>
      <trkpt lat="59.3038452" lon="18.4947122">
        <ele>2.06006</ele>
        <time>2011-03-13T08:04:17Z</time>
      </trkpt>
      <trkpt lat="59.3039193" lon="18.4944451">
        <ele>2.54065</ele>
        <time>2011-03-13T08:04:23Z</time>
      </trkpt>
      <trkpt lat="59.3039738" lon="18.4942226">
        <ele>2.54065</ele>
        <time>2011-03-13T08:04:28Z</time>
      </trkpt>
      <trkpt lat="59.3040505" lon="18.4939597">
        <ele>2.54065</ele>
        <time>2011-03-13T08:04:34Z</time>
      </trkpt>
      <trkpt lat="59.3041203" lon="18.4937503">
        <ele>2.54065</ele>
        <time>2011-03-13T08:04:39Z</time>
      </trkpt>
      <trkpt lat="59.3041989" lon="18.4934808">
        <ele>2.06006</ele>
        <time>2011-03-13T08:04:45Z</time>
      </trkpt>
      <trkpt lat="59.3042591" lon="18.4932765">
        <ele>1.57935</ele>
        <time>2011-03-13T08:04:50Z</time>
      </trkpt>
      <trkpt lat="59.3043045" lon="18.4930503">
        <ele>2.06006</ele>
        <time>2011-03-13T08:04:55Z</time>
      </trkpt>
      <trkpt lat="59.3043555" lon="18.4927652">
        <ele>3.02124</ele>
        <time>2011-03-13T08:05:01Z</time>
      </trkpt>
      <trkpt lat="59.3044021" lon="18.4925306">
        <ele>3.02124</ele>
        <time>2011-03-13T08:05:06Z</time>
      </trkpt>
      <trkpt lat="59.3044397" lon="18.4922873">
        <ele>3.50195</ele>
        <time>2011-03-13T08:05:11Z</time>
      </trkpt>
      <trkpt lat="59.3044803" lon="18.49199">
        <ele>4.46326</ele>
        <time>2011-03-13T08:05:17Z</time>
      </trkpt>
      <trkpt lat="59.3045166" lon="18.4917069">
        <ele>4.94385</ele>
        <time>2011-03-13T08:05:23Z</time>
      </trkpt>
      <trkpt lat="59.304543" lon="18.4914236">
        <ele>4.94385</ele>
        <time>2011-03-13T08:05:29Z</time>
      </trkpt>
      <trkpt lat="59.3045675" lon="18.4911437">
        <ele>5.42456</ele>
        <time>2011-03-13T08:05:35Z</time>
      </trkpt>
      <trkpt lat="59.3045834" lon="18.4909091">
        <ele>5.90527</ele>
        <time>2011-03-13T08:05:40Z</time>
      </trkpt>
      <trkpt lat="59.304599" lon="18.4906703">
        <ele>6.86646</ele>
        <time>2011-03-13T08:05:45Z</time>
      </trkpt>
      <trkpt lat="59.304618" lon="18.4903417">
        <ele>7.82788</ele>
        <time>2011-03-13T08:05:52Z</time>
      </trkpt>
      <trkpt lat="59.3046397" lon="18.4900704">
        <ele>7.82788</ele>
        <time>2011-03-13T08:05:58Z</time>
      </trkpt>
      <trkpt lat="59.3046793" lon="18.4897706">
        <ele>7.34717</ele>
        <time>2011-03-13T08:06:05Z</time>
      </trkpt>
      <trkpt lat="59.3047032" lon="18.4894906">
        <ele>7.82788</ele>
        <time>2011-03-13T08:06:11Z</time>
      </trkpt>
      <trkpt lat="59.3047189" lon="18.4892645">
        <ele>6.86646</ele>
        <time>2011-03-13T08:06:16Z</time>
      </trkpt>
      <trkpt lat="59.3047243" lon="18.4889892">
        <ele>5.90527</ele>
        <time>2011-03-13T08:06:22Z</time>
      </trkpt>
      <trkpt lat="59.3047376" lon="18.4887045">
        <ele>5.90527</ele>
        <time>2011-03-13T08:06:28Z</time>
      </trkpt>
      <trkpt lat="59.3047476" lon="18.4884149">
        <ele>6.38586</ele>
        <time>2011-03-13T08:06:34Z</time>
      </trkpt>
      <trkpt lat="59.3047599" lon="18.4881802">
        <ele>6.38586</ele>
        <time>2011-03-13T08:06:39Z</time>
      </trkpt>
      <trkpt lat="59.304765" lon="18.4879026">
        <ele>6.86646</ele>
        <time>2011-03-13T08:06:45Z</time>
      </trkpt>
      <trkpt lat="59.3047492" lon="18.4876115">
        <ele>7.34717</ele>
        <time>2011-03-13T08:06:51Z</time>
      </trkpt>
      <trkpt lat="59.3047289" lon="18.4873089">
        <ele>8.30859</ele>
        <time>2011-03-13T08:06:57Z</time>
      </trkpt>
      <trkpt lat="59.3047243" lon="18.4870138">
        <ele>8.30859</ele>
        <time>2011-03-13T08:07:03Z</time>
      </trkpt>
      <trkpt lat="59.3047299" lon="18.4866371">
        <ele>8.30859</ele>
        <time>2011-03-13T08:07:11Z</time>
      </trkpt>
      <trkpt lat="59.3047291" lon="18.4863997">
        <ele>8.30859</ele>
        <time>2011-03-13T08:07:16Z</time>
      </trkpt>
      <trkpt lat="59.3047413" lon="18.486163">
        <ele>7.82788</ele>
        <time>2011-03-13T08:07:21Z</time>
      </trkpt>
      <trkpt lat="59.3047595" lon="18.4858847">
        <ele>7.34717</ele>
        <time>2011-03-13T08:07:27Z</time>
      </trkpt>
      <trkpt lat="59.3047678" lon="18.4856469">
        <ele>7.34717</ele>
        <time>2011-03-13T08:07:32Z</time>
      </trkpt>
      <trkpt lat="59.3047806" lon="18.4853983">
        <ele>7.34717</ele>
        <time>2011-03-13T08:07:37Z</time>
      </trkpt>
      <trkpt lat="59.3047797" lon="18.485213">
        <ele>7.82788</ele>
        <time>2011-03-13T08:07:41Z</time>
      </trkpt>
      <trkpt lat="59.3047295" lon="18.4852417">
        <ele>7.34717</ele>
        <time>2011-03-13T08:07:45Z</time>
      </trkpt>
      <trkpt lat="59.3046083" lon="18.4854845">
        <ele>6.38586</ele>
        <time>2011-03-13T08:07:52Z</time>
      </trkpt>
      <trkpt lat="59.304553" lon="18.4855648">
        <ele>6.38586</ele>
        <time>2011-03-13T08:07:55Z</time>
      </trkpt>
      <trkpt lat="59.3044073" lon="18.4856171">
        <ele>5.90527</ele>
        <time>2011-03-13T08:08:01Z</time>
      </trkpt>
      <trkpt lat="59.3042636" lon="18.4856156">
        <ele>5.42456</ele>
        <time>2011-03-13T08:08:07Z</time>
      </trkpt>
      <trkpt lat="59.3041669" lon="18.4856425">
        <ele>6.38586</ele>
        <time>2011-03-13T08:08:11Z</time>
      </trkpt>
      <trkpt lat="59.3040706" lon="18.4858093">
        <ele>5.42456</ele>
        <time>2011-03-13T08:08:17Z</time>
      </trkpt>
      <trkpt lat="59.3040638" lon="18.485849">
        <ele>5.90527</ele>
        <time>2011-03-13T08:08:18Z</time>
      </trkpt>
      <trkpt lat="59.3040198" lon="18.4861183">
        <ele>6.38586</ele>
        <time>2011-03-13T08:08:24Z</time>
      </trkpt>
      <trkpt lat="59.3040018" lon="18.4862898">
        <ele>7.34717</ele>
        <time>2011-03-13T08:08:28Z</time>
      </trkpt>
      <trkpt lat="59.3039818" lon="18.4865998">
        <ele>9.2699</ele>
        <time>2011-03-13T08:08:35Z</time>
      </trkpt>
      <trkpt lat="59.3039442" lon="18.4868125">
        <ele>9.2699</ele>
        <time>2011-03-13T08:08:40Z</time>
      </trkpt>
      <trkpt lat="59.3039114" lon="18.4869765">
        <ele>8.78918</ele>
        <time>2011-03-13T08:08:44Z</time>
      </trkpt>
      <trkpt lat="59.3038554" lon="18.4871845">
        <ele>12.6344</ele>
        <time>2011-03-13T08:08:50Z</time>
      </trkpt>
      <trkpt lat="59.3037893" lon="18.4873118">
        <ele>11.6732</ele>
        <time>2011-03-13T08:08:55Z</time>
      </trkpt>
      <trkpt lat="59.3036831" lon="18.4874167">
        <ele>11.6732</ele>
        <time>2011-03-13T08:09:00Z</time>
      </trkpt>
      <trkpt lat="59.3035768" lon="18.4874622">
        <ele>13.1151</ele>
        <time>2011-03-13T08:09:05Z</time>
      </trkpt>
      <trkpt lat="59.3034423" lon="18.4874575">
        <ele>15.0377</ele>
        <time>2011-03-13T08:09:11Z</time>
      </trkpt>
      <trkpt lat="59.3033317" lon="18.4874302">
        <ele>15.999</ele>
        <time>2011-03-13T08:09:16Z</time>
      </trkpt>
      <trkpt lat="59.3032292" lon="18.4873836">
        <ele>16.4797</ele>
        <time>2011-03-13T08:09:21Z</time>
      </trkpt>
      <trkpt lat="59.3031257" lon="18.4873186">
        <ele>17.4412</ele>
        <time>2011-03-13T08:09:26Z</time>
      </trkpt>
      <trkpt lat="59.3030024" lon="18.4871365">
        <ele>16.4797</ele>
        <time>2011-03-13T08:09:33Z</time>
      </trkpt>
      <trkpt lat="59.3029087" lon="18.4868594">
        <ele>16.4797</ele>
        <time>2011-03-13T08:09:40Z</time>
      </trkpt>
      <trkpt lat="59.302836" lon="18.4865624">
        <ele>15.999</ele>
        <time>2011-03-13T08:09:47Z</time>
      </trkpt>
      <trkpt lat="59.3027672" lon="18.4862859">
        <ele>17.4412</ele>
        <time>2011-03-13T08:09:53Z</time>
      </trkpt>
      <trkpt lat="59.3026849" lon="18.4860548">
        <ele>18.4023</ele>
        <time>2011-03-13T08:09:59Z</time>
      </trkpt>
      <trkpt lat="59.3026078" lon="18.4858868">
        <ele>18.4023</ele>
        <time>2011-03-13T08:10:04Z</time>
      </trkpt>
      <trkpt lat="59.3025031" lon="18.4856995">
        <ele>18.8831</ele>
        <time>2011-03-13T08:10:10Z</time>
      </trkpt>
      <trkpt lat="59.3023813" lon="18.485546">
        <ele>20.325</ele>
        <time>2011-03-13T08:10:16Z</time>
      </trkpt>
      <trkpt lat="59.3022506" lon="18.4854011">
        <ele>22.2476</ele>
        <time>2011-03-13T08:10:22Z</time>
      </trkpt>
      <trkpt lat="59.302146" lon="18.4853036">
        <ele>23.6896</ele>
        <time>2011-03-13T08:10:27Z</time>
      </trkpt>
      <trkpt lat="59.3020442" lon="18.4851277">
        <ele>23.6896</ele>
        <time>2011-03-13T08:10:33Z</time>
      </trkpt>
      <trkpt lat="59.3019675" lon="18.4849565">
        <ele>23.209</ele>
        <time>2011-03-13T08:10:38Z</time>
      </trkpt>
      <trkpt lat="59.301894" lon="18.4846895">
        <ele>21.767</ele>
        <time>2011-03-13T08:10:45Z</time>
      </trkpt>
      <trkpt lat="59.3018306" lon="18.4844221">
        <ele>20.8057</ele>
        <time>2011-03-13T08:10:51Z</time>
      </trkpt>
      <trkpt lat="59.3017649" lon="18.4841237">
        <ele>21.2864</ele>
        <time>2011-03-13T08:10:58Z</time>
      </trkpt>
      <trkpt lat="59.3016977" lon="18.4838481">
        <ele>21.767</ele>
        <time>2011-03-13T08:11:04Z</time>
      </trkpt>
      <trkpt lat="59.3016317" lon="18.483593">
        <ele>21.767</ele>
        <time>2011-03-13T08:11:10Z</time>
      </trkpt>
      <trkpt lat="59.3015691" lon="18.4833839">
        <ele>22.7283</ele>
        <time>2011-03-13T08:11:15Z</time>
      </trkpt>
      <trkpt lat="59.301508" lon="18.4831652">
        <ele>21.767</ele>
        <time>2011-03-13T08:11:20Z</time>
      </trkpt>
      <trkpt lat="59.30145" lon="18.4829545">
        <ele>21.2864</ele>
        <time>2011-03-13T08:11:25Z</time>
      </trkpt>
      <trkpt lat="59.3013824" lon="18.4827435">
        <ele>21.2864</ele>
        <time>2011-03-13T08:11:30Z</time>
      </trkpt>
      <trkpt lat="59.3013322" lon="18.4825883">
        <ele>20.325</ele>
        <time>2011-03-13T08:11:34Z</time>
      </trkpt>
      <trkpt lat="59.3012547" lon="18.4823587">
        <ele>18.8831</ele>
        <time>2011-03-13T08:11:40Z</time>
      </trkpt>
      <trkpt lat="59.301153" lon="18.4822588">
        <ele>19.3638</ele>
        <time>2011-03-13T08:11:45Z</time>
      </trkpt>
      <trkpt lat="59.3010485" lon="18.4822278">
        <ele>19.8444</ele>
        <time>2011-03-13T08:11:50Z</time>
      </trkpt>
      <trkpt lat="59.3009314" lon="18.4822309">
        <ele>21.767</ele>
        <time>2011-03-13T08:11:56Z</time>
      </trkpt>
      <trkpt lat="59.3008276" lon="18.4822759">
        <ele>23.209</ele>
        <time>2011-03-13T08:12:01Z</time>
      </trkpt>
      <trkpt lat="59.300723" lon="18.4823617">
        <ele>25.1317</ele>
        <time>2011-03-13T08:12:06Z</time>
      </trkpt>
      <trkpt lat="59.3005947" lon="18.4824371">
        <ele>26.5736</ele>
        <time>2011-03-13T08:12:12Z</time>
      </trkpt>
      <trkpt lat="59.3005531" lon="18.4824561">
        <ele>26.5736</ele>
        <time>2011-03-13T08:12:14Z</time>
      </trkpt>
      <trkpt lat="59.3004725" lon="18.4825168">
        <ele>27.0543</ele>
        <time>2011-03-13T08:12:18Z</time>
      </trkpt>
      <trkpt lat="59.3003534" lon="18.4825904">
        <ele>28.4962</ele>
        <time>2011-03-13T08:12:25Z</time>
      </trkpt>
      <trkpt lat="59.3002469" lon="18.4827053">
        <ele>28.9769</ele>
        <time>2011-03-13T08:12:31Z</time>
      </trkpt>
      <trkpt lat="59.3002399" lon="18.4827262">
        <ele>28.4962</ele>
        <time>2011-03-13T08:12:32Z</time>
      </trkpt>
      <trkpt lat="59.3001988" lon="18.4827836">
        <ele>28.4962</ele>
        <time>2011-03-13T08:12:37Z</time>
      </trkpt>
      <trkpt lat="59.3000965" lon="18.482956">
        <ele>28.4962</ele>
        <time>2011-03-13T08:12:44Z</time>
      </trkpt>
      <trkpt lat="59.2999971" lon="18.4831674">
        <ele>27.5349</ele>
        <time>2011-03-13T08:12:52Z</time>
      </trkpt>
      <trkpt lat="59.2999517" lon="18.4833299">
        <ele>28.4962</ele>
        <time>2011-03-13T08:12:57Z</time>
      </trkpt>
      <trkpt lat="59.2999186" lon="18.4835359">
        <ele>28.4962</ele>
        <time>2011-03-13T08:13:03Z</time>
      </trkpt>
      <trkpt lat="59.2999037" lon="18.4837398">
        <ele>28.9769</ele>
        <time>2011-03-13T08:13:08Z</time>
      </trkpt>
      <trkpt lat="59.2999074" lon="18.4839785">
        <ele>29.4575</ele>
        <time>2011-03-13T08:13:14Z</time>
      </trkpt>
      <trkpt lat="59.2999015" lon="18.4842369">
        <ele>28.9769</ele>
        <time>2011-03-13T08:13:20Z</time>
      </trkpt>
      <trkpt lat="59.2998895" lon="18.4844978">
        <ele>28.9769</ele>
        <time>2011-03-13T08:13:26Z</time>
      </trkpt>
      <trkpt lat="59.29985" lon="18.4847674">
        <ele>28.9769</ele>
        <time>2011-03-13T08:13:32Z</time>
      </trkpt>
      <trkpt lat="59.2997774" lon="18.484973">
        <ele>28.0155</ele>
        <time>2011-03-13T08:13:37Z</time>
      </trkpt>
      <trkpt lat="59.2997005" lon="18.485158">
        <ele>27.5349</ele>
        <time>2011-03-13T08:13:42Z</time>
      </trkpt>
      <trkpt lat="59.2996131" lon="18.4853286">
        <ele>28.0155</ele>
        <time>2011-03-13T08:13:47Z</time>
      </trkpt>
      <trkpt lat="59.2995198" lon="18.48547">
        <ele>28.0155</ele>
        <time>2011-03-13T08:13:52Z</time>
      </trkpt>
      <trkpt lat="59.2993826" lon="18.4855934">
        <ele>28.0155</ele>
        <time>2011-03-13T08:13:58Z</time>
      </trkpt>
      <trkpt lat="59.2992763" lon="18.4856793">
        <ele>26.5736</ele>
        <time>2011-03-13T08:14:03Z</time>
      </trkpt>
      <trkpt lat="59.2991938" lon="18.4858132">
        <ele>25.1317</ele>
        <time>2011-03-13T08:14:08Z</time>
      </trkpt>
      <trkpt lat="59.2991542" lon="18.4859409">
        <ele>24.1703</ele>
        <time>2011-03-13T08:14:12Z</time>
      </trkpt>
      <trkpt lat="59.2991208" lon="18.4861541">
        <ele>22.2476</ele>
        <time>2011-03-13T08:14:17Z</time>
      </trkpt>
      <trkpt lat="59.2991188" lon="18.4863941">
        <ele>20.8057</ele>
        <time>2011-03-13T08:14:22Z</time>
      </trkpt>
      <trkpt lat="59.2991369" lon="18.4866261">
        <ele>19.8444</ele>
        <time>2011-03-13T08:14:27Z</time>
      </trkpt>
      <trkpt lat="59.2991483" lon="18.4868173">
        <ele>19.8444</ele>
        <time>2011-03-13T08:14:31Z</time>
      </trkpt>
      <trkpt lat="59.2991604" lon="18.4870877">
        <ele>19.8444</ele>
        <time>2011-03-13T08:14:37Z</time>
      </trkpt>
      <trkpt lat="59.2991345" lon="18.487299">
        <ele>19.3638</ele>
        <time>2011-03-13T08:14:42Z</time>
      </trkpt>
      <trkpt lat="59.2991125" lon="18.4875104">
        <ele>17.9218</ele>
        <time>2011-03-13T08:14:47Z</time>
      </trkpt>
      <trkpt lat="59.2991251" lon="18.4877555">
        <ele>15.0377</ele>
        <time>2011-03-13T08:14:52Z</time>
      </trkpt>
      <trkpt lat="59.2991649" lon="18.4878782">
        <ele>13.5958</ele>
        <time>2011-03-13T08:14:55Z</time>
      </trkpt>
      <trkpt lat="59.2992283" lon="18.4880565">
        <ele>13.1151</ele>
        <time>2011-03-13T08:15:00Z</time>
      </trkpt>
      <trkpt lat="59.2992605" lon="18.4881192">
        <ele>13.1151</ele>
        <time>2011-03-13T08:15:02Z</time>
      </trkpt>
      <trkpt lat="59.2992898" lon="18.4881756">
        <ele>12.6344</ele>
        <time>2011-03-13T08:15:04Z</time>
      </trkpt>
      <trkpt lat="59.2993435" lon="18.488459">
        <ele>10.2312</ele>
        <time>2011-03-13T08:15:11Z</time>
      </trkpt>
      <trkpt lat="59.2993648" lon="18.4886993">
        <ele>9.2699</ele>
        <time>2011-03-13T08:15:16Z</time>
      </trkpt>
      <trkpt lat="59.2993386" lon="18.4889083">
        <ele>7.34717</ele>
        <time>2011-03-13T08:15:20Z</time>
      </trkpt>
      <trkpt lat="59.2993259" lon="18.4890066">
        <ele>6.38586</ele>
        <time>2011-03-13T08:15:22Z</time>
      </trkpt>
      <trkpt lat="59.2993661" lon="18.4892953">
        <ele>8.78918</ele>
        <time>2011-03-13T08:15:28Z</time>
      </trkpt>
      <trkpt lat="59.2993975" lon="18.4895238">
        <ele>7.82788</ele>
        <time>2011-03-13T08:15:33Z</time>
      </trkpt>
      <trkpt lat="59.299449" lon="18.4897416">
        <ele>8.30859</ele>
        <time>2011-03-13T08:15:38Z</time>
      </trkpt>
      <trkpt lat="59.2995111" lon="18.4899623">
        <ele>9.75061</ele>
        <time>2011-03-13T08:15:43Z</time>
      </trkpt>
      <trkpt lat="59.2995366" lon="18.4900486">
        <ele>9.75061</ele>
        <time>2011-03-13T08:15:45Z</time>
      </trkpt>
      <trkpt lat="59.2996005" lon="18.4902481">
        <ele>10.7118</ele>
        <time>2011-03-13T08:15:50Z</time>
      </trkpt>
      <trkpt lat="59.2996668" lon="18.4904567">
        <ele>14.557</ele>
        <time>2011-03-13T08:15:56Z</time>
      </trkpt>
      <trkpt lat="59.2997248" lon="18.4906321">
        <ele>15.5184</ele>
        <time>2011-03-13T08:16:02Z</time>
      </trkpt>
      <trkpt lat="59.2997566" lon="18.490797">
        <ele>15.999</ele>
        <time>2011-03-13T08:16:07Z</time>
      </trkpt>
      <trkpt lat="59.2997891" lon="18.4910397">
        <ele>16.4797</ele>
        <time>2011-03-13T08:16:14Z</time>
      </trkpt>
      <trkpt lat="59.2998411" lon="18.4912945">
        <ele>17.4412</ele>
        <time>2011-03-13T08:16:21Z</time>
      </trkpt>
      <trkpt lat="59.2998733" lon="18.4914743">
        <ele>17.4412</ele>
        <time>2011-03-13T08:16:26Z</time>
      </trkpt>
      <trkpt lat="59.2999165" lon="18.4916816">
        <ele>17.4412</ele>
        <time>2011-03-13T08:16:31Z</time>
      </trkpt>
      <trkpt lat="59.2999571" lon="18.491885">
        <ele>18.8831</ele>
        <time>2011-03-13T08:16:36Z</time>
      </trkpt>
      <trkpt lat="59.2999984" lon="18.49209">
        <ele>18.8831</ele>
        <time>2011-03-13T08:16:41Z</time>
      </trkpt>
      <trkpt lat="59.300045" lon="18.4922485">
        <ele>18.8831</ele>
        <time>2011-03-13T08:16:45Z</time>
      </trkpt>
      <trkpt lat="59.3000853" lon="18.4924122">
        <ele>18.4023</ele>
        <time>2011-03-13T08:16:49Z</time>
      </trkpt>
      <trkpt lat="59.3001517" lon="18.4927232">
        <ele>20.8057</ele>
        <time>2011-03-13T08:16:56Z</time>
      </trkpt>
      <trkpt lat="59.3002093" lon="18.4929438">
        <ele>20.8057</ele>
        <time>2011-03-13T08:17:01Z</time>
      </trkpt>
      <trkpt lat="59.3002796" lon="18.4931494">
        <ele>20.8057</ele>
        <time>2011-03-13T08:17:06Z</time>
      </trkpt>
      <trkpt lat="59.300368" lon="18.4934582">
        <ele>20.8057</ele>
        <time>2011-03-13T08:17:13Z</time>
      </trkpt>
      <trkpt lat="59.3003797" lon="18.4935023">
        <ele>21.2864</ele>
        <time>2011-03-13T08:17:14Z</time>
      </trkpt>
      <trkpt lat="59.3004558" lon="18.4937034">
        <ele>20.325</ele>
        <time>2011-03-13T08:17:19Z</time>
      </trkpt>
      <trkpt lat="59.3004765" lon="18.4937855">
        <ele>20.8057</ele>
        <time>2011-03-13T08:17:21Z</time>
      </trkpt>
      <trkpt lat="59.3005471" lon="18.4940313">
        <ele>19.8444</ele>
        <time>2011-03-13T08:17:27Z</time>
      </trkpt>
      <trkpt lat="59.3006044" lon="18.4942521">
        <ele>20.325</ele>
        <time>2011-03-13T08:17:32Z</time>
      </trkpt>
      <trkpt lat="59.3006793" lon="18.4945021">
        <ele>20.325</ele>
        <time>2011-03-13T08:17:38Z</time>
      </trkpt>
      <trkpt lat="59.3007477" lon="18.4947575">
        <ele>20.325</ele>
        <time>2011-03-13T08:17:44Z</time>
      </trkpt>
      <trkpt lat="59.3007995" lon="18.4949905">
        <ele>21.2864</ele>
        <time>2011-03-13T08:17:49Z</time>
      </trkpt>
      <trkpt lat="59.3008838" lon="18.4953101">
        <ele>22.2476</ele>
        <time>2011-03-13T08:17:56Z</time>
      </trkpt>
      <trkpt lat="59.3009537" lon="18.4956282">
        <ele>23.209</ele>
        <time>2011-03-13T08:18:02Z</time>
      </trkpt>
      <trkpt lat="59.3010225" lon="18.4959497">
        <ele>23.209</ele>
        <time>2011-03-13T08:18:07Z</time>
      </trkpt>
      <trkpt lat="59.3010832" lon="18.496214">
        <ele>22.7283</ele>
        <time>2011-03-13T08:18:12Z</time>
      </trkpt>
      <trkpt lat="59.3011443" lon="18.4965202">
        <ele>21.2864</ele>
        <time>2011-03-13T08:18:18Z</time>
      </trkpt>
      <trkpt lat="59.3012054" lon="18.4967548">
        <ele>19.8444</ele>
        <time>2011-03-13T08:18:23Z</time>
      </trkpt>
      <trkpt lat="59.3012819" lon="18.4970137">
        <ele>18.8831</ele>
        <time>2011-03-13T08:18:29Z</time>
      </trkpt>
      <trkpt lat="59.3013407" lon="18.4972516">
        <ele>18.8831</ele>
        <time>2011-03-13T08:18:34Z</time>
      </trkpt>
      <trkpt lat="59.301369" lon="18.4973851">
        <ele>18.4023</ele>
        <time>2011-03-13T08:18:37Z</time>
      </trkpt>
      <trkpt lat="59.3013287" lon="18.4975996">
        <ele>19.8444</ele>
        <time>2011-03-13T08:18:42Z</time>
      </trkpt>
      <trkpt lat="59.3013122" lon="18.4976264">
        <ele>20.325</ele>
        <time>2011-03-13T08:18:43Z</time>
      </trkpt>
      <trkpt lat="59.3012018" lon="18.4977691">
        <ele>21.2864</ele>
        <time>2011-03-13T08:18:49Z</time>
      </trkpt>
      <trkpt lat="59.3011319" lon="18.4978867">
        <ele>22.7283</ele>
        <time>2011-03-13T08:18:54Z</time>
      </trkpt>
      <trkpt lat="59.3010623" lon="18.4980649">
        <ele>23.6896</ele>
        <time>2011-03-13T08:19:00Z</time>
      </trkpt>
      <trkpt lat="59.3009968" lon="18.4983057">
        <ele>25.6123</ele>
        <time>2011-03-13T08:19:06Z</time>
      </trkpt>
      <trkpt lat="59.3009378" lon="18.4985829">
        <ele>28.4962</ele>
        <time>2011-03-13T08:19:13Z</time>
      </trkpt>
      <trkpt lat="59.3008962" lon="18.4988866">
        <ele>30.4188</ele>
        <time>2011-03-13T08:19:20Z</time>
      </trkpt>
      <trkpt lat="59.3008641" lon="18.4991409">
        <ele>32.3416</ele>
        <time>2011-03-13T08:19:26Z</time>
      </trkpt>
      <trkpt lat="59.3008295" lon="18.4993457">
        <ele>32.8223</ele>
        <time>2011-03-13T08:19:31Z</time>
      </trkpt>
      <trkpt lat="59.300792" lon="18.4995599">
        <ele>32.8223</ele>
        <time>2011-03-13T08:19:36Z</time>
      </trkpt>
      <trkpt lat="59.3007411" lon="18.4998593">
        <ele>32.8223</ele>
        <time>2011-03-13T08:19:43Z</time>
      </trkpt>
      <trkpt lat="59.3007081" lon="18.5001258">
        <ele>33.7834</ele>
        <time>2011-03-13T08:19:49Z</time>
      </trkpt>
      <trkpt lat="59.3006783" lon="18.500312">
        <ele>33.7834</ele>
        <time>2011-03-13T08:19:53Z</time>
      </trkpt>
      <trkpt lat="59.300633" lon="18.5005788">
        <ele>33.7834</ele>
        <time>2011-03-13T08:19:59Z</time>
      </trkpt>
      <trkpt lat="59.3005831" lon="18.5007956">
        <ele>32.8223</ele>
        <time>2011-03-13T08:20:04Z</time>
      </trkpt>
      <trkpt lat="59.3005351" lon="18.5010609">
        <ele>33.3029</ele>
        <time>2011-03-13T08:20:10Z</time>
      </trkpt>
      <trkpt lat="59.3004843" lon="18.5013289">
        <ele>31.8607</ele>
        <time>2011-03-13T08:20:16Z</time>
      </trkpt>
      <trkpt lat="59.3004487" lon="18.5015055">
        <ele>30.8995</ele>
        <time>2011-03-13T08:20:20Z</time>
      </trkpt>
      <trkpt lat="59.3004066" lon="18.5017184">
        <ele>31.3801</ele>
        <time>2011-03-13T08:20:25Z</time>
      </trkpt>
      <trkpt lat="59.3003654" lon="18.5019598">
        <ele>31.3801</ele>
        <time>2011-03-13T08:20:31Z</time>
      </trkpt>
      <trkpt lat="59.3003144" lon="18.5022727">
        <ele>32.8223</ele>
        <time>2011-03-13T08:20:39Z</time>
      </trkpt>
      <trkpt lat="59.3002602" lon="18.5025421">
        <ele>34.7449</ele>
        <time>2011-03-13T08:20:46Z</time>
      </trkpt>
      <trkpt lat="59.3002029" lon="18.5027786">
        <ele>36.1868</ele>
        <time>2011-03-13T08:20:52Z</time>
      </trkpt>
      <trkpt lat="59.3001201" lon="18.5030348">
        <ele>38.5901</ele>
        <time>2011-03-13T08:20:59Z</time>
      </trkpt>
      <trkpt lat="59.3000524" lon="18.5032487">
        <ele>39.0707</ele>
        <time>2011-03-13T08:21:05Z</time>
      </trkpt>
      <trkpt lat="59.2999871" lon="18.5034693">
        <ele>39.0707</ele>
        <time>2011-03-13T08:21:11Z</time>
      </trkpt>
      <trkpt lat="59.2999213" lon="18.5036773">
        <ele>39.0707</ele>
        <time>2011-03-13T08:21:16Z</time>
      </trkpt>
      <trkpt lat="59.2998509" lon="18.5039175">
        <ele>38.1094</ele>
        <time>2011-03-13T08:21:22Z</time>
      </trkpt>
      <trkpt lat="59.2997789" lon="18.504134">
        <ele>36.6675</ele>
        <time>2011-03-13T08:21:27Z</time>
      </trkpt>
      <trkpt lat="59.29971" lon="18.5043855">
        <ele>36.6675</ele>
        <time>2011-03-13T08:21:33Z</time>
      </trkpt>
      <trkpt lat="59.2996257" lon="18.5046908">
        <ele>36.6675</ele>
        <time>2011-03-13T08:21:39Z</time>
      </trkpt>
      <trkpt lat="59.2995309" lon="18.5049788">
        <ele>36.1868</ele>
        <time>2011-03-13T08:21:44Z</time>
      </trkpt>
      <trkpt lat="59.2994313" lon="18.505176">
        <ele>35.7061</ele>
        <time>2011-03-13T08:21:48Z</time>
      </trkpt>
      <trkpt lat="59.2993209" lon="18.5053124">
        <ele>31.8607</ele>
        <time>2011-03-13T08:21:52Z</time>
      </trkpt>
      <trkpt lat="59.2991842" lon="18.5055075">
        <ele>29.4575</ele>
        <time>2011-03-13T08:21:58Z</time>
      </trkpt>
      <trkpt lat="59.2991713" lon="18.5057321">
        <ele>30.4188</ele>
        <time>2011-03-13T08:22:02Z</time>
      </trkpt>
      <trkpt lat="59.2992058" lon="18.5060801">
        <ele>32.3416</ele>
        <time>2011-03-13T08:22:07Z</time>
      </trkpt>
      <trkpt lat="59.2992494" lon="18.5063722">
        <ele>33.7834</ele>
        <time>2011-03-13T08:22:11Z</time>
      </trkpt>
      <trkpt lat="59.2993204" lon="18.5066768">
        <ele>34.7449</ele>
        <time>2011-03-13T08:22:15Z</time>
      </trkpt>
      <trkpt lat="59.2993464" lon="18.5068353">
        <ele>35.2255</ele>
        <time>2011-03-13T08:22:17Z</time>
      </trkpt>
      <trkpt lat="59.2993749" lon="18.5070679">
        <ele>36.6675</ele>
        <time>2011-03-13T08:22:21Z</time>
      </trkpt>
    </trkseg>
  </trk>
</gpx>